MMMM

General Francisco J. Mujica International Airport

Morelia, Mexico
TAF MMMM 170423Z 1706/1812 23005KT P6SM SKC FM171800 22010KT P6SM SCT025 SCT230 BECMG 1805/1807 14006KT SKC
Issued Valid From Valid To
Nov-17 @ 04:23 UTC
(5 hours ago)
Nov-17 @ 06:00 UTC
(3 hours ago)
Nov-18 @ 12:00 UTC
(-1 days ago)
Nov-17 @ 06:00 to Nov-17 @ 18:00
TAF MMMM 170423Z 1706/1812 23005KT P6SM SKC
Wind Visibility Clouds
230° at 5 knots Greater than 6 miles
  • Clear skies
From Nov-17 @ 18:00 to Nov-18 @ 05:00
FM171800 22010KT P6SM SCT025 SCT230
Wind Visibility Clouds
220° at 10 knots Greater than 6 miles
  • Scattered at 2,500' AGL
  • Scattered at 23,000' AGL
Becoming Nov-18 @ 05:00 to Nov-18 @ 12:00
BECMG 1805/1807 14006KT SKC
Wind Visibility Clouds
140° at 6 knots Greater than 6 miles
  • Clear skies
TAF MMMM 170423Z 1706/1812 23005KT P6SM SKC FM171800 22010KT P6SM SCT025 SCT230 BECMG 1805/1807 14006KT SKC
Issued Nov-17 @ 04:23 UTC
(5 hours ago)
Valid From Nov-17 @ 06:00 UTC
(3 hours ago)
Valid To Nov-18 @ 12:00 UTC
(-1 days ago)
Nov-17 @ 06:00 - Nov-17 @ 18:00
Wind Visibility
230° at 5 knots Greater than 6 miles
Clouds
  • Clear skies
From Nov-17 @ 18:00 - Nov-18 @ 05:00
Wind Visibility
220° at 10 knots Greater than 6 miles
Clouds
  • Scattered at 2,500' AGL
  • Scattered at 23,000' AGL
Becoming Nov-18 @ 05:00 - Nov-18 @ 12:00
Wind Visibility
140° at 6 knots Greater than 6 miles
Clouds
  • Clear skies